Lesley Pg — MXUG5 — position and weather

sailwx.info

Track history (hours):
 
Tides and Currents Weather Stations Pressure Air Temp Water Temp Dewpoint Dewpoint Depression Visibility Wind Speed Wind Dir Waves Ship Positions

Lesley Pg

Last reported at 2017-Oct-21 23:40 UTC. Time now 2017-Oct-22 08:34 UTC.
Position N 14°30' W 061°20'.

Length 102 m; draft 4.6 m.

Type: Tanker. MMSI: 234910000.

Date/timePositionNaut miles runAvg speedWind from/ knotsBaromVisibWave heightAir tempDewpointWater temp
2017-Oct-21 23:40N 14°30' W 061°20'2 9.8
2017-Oct-21 23:28N 14°31' W 061°20'5 9.6
2017-Oct-21 22:59N 14°36' W 061°22'43 9.1
2017-Oct-21 18:17N 15°15' W 061°40'63 9.6
2017-Oct-21 11:46N 16°12' W 062°08'710.0
2017-Oct-21 11:06N 16°17' W 062°12'1 9.9
2017-Oct-21 11:00N 16°18' W 062°13'510.0
2017-Oct-21 10:27N 16°22' W 062°16'410.0
2017-Oct-21 10:00N 16°26' W 062°19'510.0
2017-Oct-21 09:30N 16°30' W 062°22'610.1
2017-Oct-21 08:57N 16°34' W 062°25'510.1
2017-Oct-21 08:30N 16°38' W 062°28'510.1
2017-Oct-21 08:00N 16°42' W 062°31'  
2017-Oct-17 22:09N 17°16' W 062°43'34 1.8
2017-Oct-17 03:51N 16°44' W 062°32'3 9.9
2017-Oct-17 03:31N 16°42' W 062°30'5 9.9
2017-Oct-17 03:00N 16°38' W 062°27'5 9.8
2017-Oct-17 02:30N 16°33' W 062°25'5 9.7
2017-Oct-17 02:01N 16°30' W 062°22'5 9.8
2017-Oct-17 01:31N 16°25' W 062°19'6 9.6
2017-Oct-17 00:55N 16°21' W 062°15'4710.3
2017-Oct-16 20:22N 15°43' W 061°47'710.3
2017-Oct-16 19:42N 15°37' W 061°43'210.7
2017-Oct-16 19:30N 15°35' W 061°42'610.9
2017-Oct-16 18:59N 15°31' W 061°38'610.8
2017-Oct-16 18:25N 15°26' W 061°35'49 1.5
2017-Oct-15 11:01N 14°39' W 061°23'010.7
2017-Oct-15 11:00N 14°39' W 061°23'510.8
2017-Oct-15 10:30N 14°34' W 061°21'27 0.7
2017-Oct-13 19:59N 14°10' W 061°06'3210.0
2017-Oct-13 16:50N 14°37' W 061°22'4310.3
2017-Oct-13 12:38N 15°17' W 061°40'6611.0
2017-Oct-13 06:38N 16°16' W 062°11'110.7
2017-Oct-13 06:30N 16°18' W 062°12'611.1
2017-Oct-13 06:00N 16°22' W 062°15'611.2
2017-Oct-13 05:30N 16°27' W 062°18'510.9
2017-Oct-13 05:00N 16°31' W 062°21'510.8
2017-Oct-13 04:30N 16°36' W 062°24'611.2
2017-Oct-13 04:00N 16°41' W 062°27'78 4.4
2017-Oct-12 10:26N 17°55' W 062°53'3 5.3
2017-Oct-12 09:51N 17°52' W 062°54'410.5
2017-Oct-12 09:26N 17°48' W 062°54'510.5
2017-Oct-12 08:56N 17°42' W 062°54'510.6
2017-Oct-12 08:30N 17°38' W 062°54'4510.1
2017-Oct-12 04:01N 16°55' W 062°37'210.5
2017-Oct-12 03:52N 16°54' W 062°36'910.4
2017-Oct-12 03:02N 16°47' W 062°31'010.2
2017-Oct-12 03:01N 16°46' W 062°31'510.4
2017-Oct-12 02:30N 16°42' W 062°28'510.4
2017-Oct-12 02:00N 16°38' W 062°25'510.4
2017-Oct-12 01:30N 16°33' W 062°22'510.5
2017-Oct-12 01:00N 16°29' W 062°19'510.6
2017-Oct-12 00:30N 16°24' W 062°16'510.3
2017-Oct-11 23:59N 16°20' W 062°13'  
Track history (hours):
 
Tides and Currents Weather Stations Pressure Air Temp Water Temp Dewpoint Dewpoint Depression Visibility Wind Speed Wind Dir Waves Ship Positions

Lesley Pg

Last reported at 2017-Oct-21 23:40 UTC. Time now 2017-Oct-22 08:34 UTC.
Position N 14°30' W 061°20'.

Length 102 m; draft 4.6 m.

Type: Tanker. MMSI: 234910000.

Date/timePositionNaut miles runAvg speedWind from/ knotsBaromVisibWave heightAir tempDewpointWater temp
2017-Oct-21 23:40N 14°30' W 061°20'2 9.8
2017-Oct-21 23:28N 14°31' W 061°20'5 9.6
2017-Oct-21 22:59N 14°36' W 061°22'43 9.1
2017-Oct-21 18:17N 15°15' W 061°40'63 9.6
2017-Oct-21 11:46N 16°12' W 062°08'710.0
2017-Oct-21 11:06N 16°17' W 062°12'1 9.9
2017-Oct-21 11:00N 16°18' W 062°13'510.0
2017-Oct-21 10:27N 16°22' W 062°16'410.0
2017-Oct-21 10:00N 16°26' W 062°19'510.0
2017-Oct-21 09:30N 16°30' W 062°22'610.1
2017-Oct-21 08:57N 16°34' W 062°25'510.1
2017-Oct-21 08:30N 16°38' W 062°28'510.1
2017-Oct-21 08:00N 16°42' W 062°31'  
2017-Oct-17 22:09N 17°16' W 062°43'34 1.8
2017-Oct-17 03:51N 16°44' W 062°32'3 9.9
2017-Oct-17 03:31N 16°42' W 062°30'5 9.9
2017-Oct-17 03:00N 16°38' W 062°27'5 9.8
2017-Oct-17 02:30N 16°33' W 062°25'5 9.7
2017-Oct-17 02:01N 16°30' W 062°22'5 9.8
2017-Oct-17 01:31N 16°25' W 062°19'6 9.6
2017-Oct-17 00:55N 16°21' W 062°15'4710.3
2017-Oct-16 20:22N 15°43' W 061°47'710.3
2017-Oct-16 19:42N 15°37' W 061°43'210.7
2017-Oct-16 19:30N 15°35' W 061°42'610.9
2017-Oct-16 18:59N 15°31' W 061°38'610.8
2017-Oct-16 18:25N 15°26' W 061°35'49 1.5
2017-Oct-15 11:01N 14°39' W 061°23'010.7
2017-Oct-15 11:00N 14°39' W 061°23'510.8
2017-Oct-15 10:30N 14°34' W 061°21'27 0.7
2017-Oct-13 19:59N 14°10' W 061°06'3210.0
2017-Oct-13 16:50N 14°37' W 061°22'4310.3
2017-Oct-13 12:38N 15°17' W 061°40'6611.0
2017-Oct-13 06:38N 16°16' W 062°11'110.7
2017-Oct-13 06:30N 16°18' W 062°12'611.1
2017-Oct-13 06:00N 16°22' W 062°15'611.2
2017-Oct-13 05:30N 16°27' W 062°18'510.9
2017-Oct-13 05:00N 16°31' W 062°21'510.8
2017-Oct-13 04:30N 16°36' W 062°24'611.2
2017-Oct-13 04:00N 16°41' W 062°27'78 4.4
2017-Oct-12 10:26N 17°55' W 062°53'3 5.3
2017-Oct-12 09:51N 17°52' W 062°54'410.5
2017-Oct-12 09:26N 17°48' W 062°54'510.5
2017-Oct-12 08:56N 17°42' W 062°54'510.6
2017-Oct-12 08:30N 17°38' W 062°54'4510.1
2017-Oct-12 04:01N 16°55' W 062°37'210.5
2017-Oct-12 03:52N 16°54' W 062°36'910.4
2017-Oct-12 03:02N 16°47' W 062°31'010.2
2017-Oct-12 03:01N 16°46' W 062°31'510.4
2017-Oct-12 02:30N 16°42' W 062°28'510.4
2017-Oct-12 02:00N 16°38' W 062°25'510.4
2017-Oct-12 01:30N 16°33' W 062°22'510.5
2017-Oct-12 01:00N 16°29' W 062°19'510.6
2017-Oct-12 00:30N 16°24' W 062°16'510.3
2017-Oct-11 23:59N 16°20' W 062°13'  

Dump ship's entire track history